sensor_id;sensor_type;location;lat;lon;timestamp;pressure;altitude;pressure_sealevel;temperature;humidity
64211;BME280;50528;48.514;14.394;2022-12-29T00:00:25;93838.17;;;1.82;75.50
64211;BME280;50528;48.514;14.394;2022-12-29T00:01:25;93841.18;;;1.76;75.37
64211;BME280;50528;48.514;14.394;2022-12-29T00:02:02;93837.25;;;1.73;75.52
64211;BME280;50528;48.514;14.394;2022-12-29T00:04:49;93840.30;;;1.57;75.43
64211;BME280;50528;48.514;14.394;2022-12-29T00:05:23;93839.41;;;1.56;75.87
64211;BME280;50528;48.514;14.394;2022-12-29T00:05:58;93836.27;;;1.56;75.87
64211;BME280;50528;48.514;14.394;2022-12-29T00:06:32;93834.58;;;1.55;76.17
64211;BME280;50528;48.514;14.394;2022-12-29T00:07:45;93836.95;;;1.50;75.95
64211;BME280;50528;48.514;14.394;2022-12-29T00:09:06;93834.86;;;1.46;76.09
64211;BME280;50528;48.514;14.394;2022-12-29T00:10:02;93834.05;;;1.44;76.34
64211;BME280;50528;48.514;14.394;2022-12-29T00:10:39;93830.56;;;1.43;76.14
64211;BME280;50528;48.514;14.394;2022-12-29T00:11:14;93830.98;;;1.44;76.21
64211;BME280;50528;48.514;14.394;2022-12-29T00:11:48;93830.34;;;1.44;76.20
64211;BME280;50528;48.514;14.394;2022-12-29T00:12:23;93827.74;;;1.44;76.25
64211;BME280;50528;48.514;14.394;2022-12-29T00:12:56;93825.00;;;1.44;76.52
64211;BME280;50528;48.514;14.394;2022-12-29T00:13:49;93825.51;;;1.41;76.33
64211;BME280;50528;48.514;14.394;2022-12-29T00:14:41;93826.67;;;1.37;76.41
64211;BME280;50528;48.514;14.394;2022-12-29T00:15:32;93828.70;;;1.35;76.45
64211;BME280;50528;48.514;14.394;2022-12-29T00:16:12;93830.57;;;1.34;76.70
64211;BME280;50528;48.514;14.394;2022-12-29T00:17:11;93826.59;;;1.31;76.49
64211;BME280;50528;48.514;14.394;2022-12-29T00:18:02;93825.44;;;1.29;76.54
64211;BME280;50528;48.514;14.394;2022-12-29T00:18:36;93829.55;;;1.30;76.68
64211;BME280;50528;48.514;14.394;2022-12-29T00:19:10;93828.67;;;1.31;76.63
64211;BME280;50528;48.514;14.394;2022-12-29T00:20:04;93830.30;;;1.30;76.52
64211;BME280;50528;48.514;14.394;2022-12-29T00:20:56;93827.87;;;1.29;76.60
64211;BME280;50528;48.514;14.394;2022-12-29T00:21:52;93824.15;;;1.27;76.58
64211;BME280;50528;48.514;14.394;2022-12-29T00:22:45;93820.04;;;1.26;76.59
64211;BME280;50528;48.514;14.394;2022-12-29T00:23:37;93819.04;;;1.23;76.65
64211;BME280;50528;48.514;14.394;2022-12-29T00:24:31;93819.52;;;1.22;76.75
64211;BME280;50528;48.514;14.394;2022-12-29T00:25:25;93814.30;;;1.22;76.67
64211;BME280;50528;48.514;14.394;2022-12-29T00:26:17;93814.75;;;1.21;76.67
64211;BME280;50528;48.514;14.394;2022-12-29T00:27:12;93813.83;;;1.20;76.63
64211;BME280;50528;48.514;14.394;2022-12-29T00:28:08;93814.77;;;1.19;76.54
64211;BME280;50528;48.514;14.394;2022-12-29T00:29:01;93814.30;;;1.17;76.72
64211;BME280;50528;48.514;14.394;2022-12-29T00:29:53;93811.71;;;1.15;76.96
64211;BME280;50528;48.514;14.394;2022-12-29T00:31:11;93815.21;;;1.16;76.88
64211;BME280;50528;48.514;14.394;2022-12-29T00:32:06;93814.15;;;1.15;76.86
64211;BME280;50528;48.514;14.394;2022-12-29T00:32:59;93814.30;;;1.13;76.86
64211;BME280;50528;48.514;14.394;2022-12-29T00:33:51;93810.92;;;1.13;77.14
64211;BME280;50528;48.514;14.394;2022-12-29T00:34:43;93812.88;;;1.11;76.96
64211;BME280;50528;48.514;14.394;2022-12-29T00:35:39;93815.30;;;1.11;76.95
64211;BME280;50528;48.514;14.394;2022-12-29T00:36:23;93815.38;;;1.13;77.02
64211;BME280;50528;48.514;14.394;2022-12-29T00:37:00;93814.33;;;1.11;76.89
64211;BME280;50528;48.514;14.394;2022-12-29T00:38:04;93816.02;;;1.12;76.90
64211;BME280;50528;48.514;14.394;2022-12-29T00:39:34;93792.33;;;0.92;76.84
64211;BME280;50528;48.514;14.394;2022-12-29T00:40:26;93812.52;;;1.04;76.76
64211;BME280;50528;48.514;14.394;2022-12-29T00:41:18;93812.79;;;1.05;76.97
64211;BME280;50528;48.514;14.394;2022-12-29T00:42:10;93812.91;;;1.05;77.00
64211;BME280;50528;48.514;14.394;2022-12-29T00:43:02;93810.76;;;1.04;76.84
64211;BME280;50528;48.514;14.394;2022-12-29T00:43:54;93811.48;;;1.06;76.90
64211;BME280;50528;48.514;14.394;2022-12-29T00:44:40;93811.41;;;1.06;77.00
64211;BME280;50528;48.514;14.394;2022-12-29T00:45:15;93811.17;;;1.08;76.93
64211;BME280;50528;48.514;14.394;2022-12-29T00:45:50;93812.73;;;1.08;77.02
64211;BME280;50528;48.514;14.394;2022-12-29T00:46:23;93816.30;;;1.10;77.02
64211;BME280;50528;48.514;14.394;2022-12-29T00:46:57;93816.30;;;1.11;77.03
64211;BME280;50528;48.514;14.394;2022-12-29T00:47:30;93815.35;;;1.12;77.08
64211;BME280;50528;48.514;14.394;2022-12-29T00:49:23;93788.83;;;0.94;76.85
64211;BME280;50528;48.514;14.394;2022-12-29T00:50:03;93814.94;;;1.05;76.57
64211;BME280;50528;48.514;14.394;2022-12-29T00:50:37;93811.59;;;1.06;76.90
64211;BME280;50528;48.514;14.394;2022-12-29T00:51:10;93809.56;;;1.07;76.89
64211;BME280;50528;48.514;14.394;2022-12-29T00:51:45;93812.36;;;1.08;76.97
64211;BME280;50528;48.514;14.394;2022-12-29T00:52:19;93809.77;;;1.08;76.98
64211;BME280;50528;48.514;14.394;2022-12-29T00:53:01;93811.11;;;1.10;76.62
64211;BME280;50528;48.514;14.394;2022-12-29T00:53:51;93809.46;;;1.09;76.66
64211;BME280;50528;48.514;14.394;2022-12-29T01:01:12;93809.82;;;0.95;76.90
64211;BME280;50528;48.514;14.394;2022-12-29T01:01:47;93810.40;;;0.92;76.90
64211;BME280;50528;48.514;14.394;2022-12-29T01:02:25;93812.77;;;0.94;76.94
64211;BME280;50528;48.514;14.394;2022-12-29T01:02:58;93809.53;;;0.95;76.71
64211;BME280;50528;48.514;14.394;2022-12-29T01:03:33;93810.69;;;0.97;77.18
64211;BME280;50528;48.514;14.394;2022-12-29T01:04:07;93810.23;;;0.98;77.18
64211;BME280;50528;48.514;14.394;2022-12-29T01:04:41;93808.34;;;0.99;77.03
64211;BME280;50528;48.514;14.394;2022-12-29T01:05:14;93804.34;;;1.00;77.09
64211;BME280;50528;48.514;14.394;2022-12-29T01:05:51;93808.02;;;1.02;76.92
64211;BME280;50528;48.514;14.394;2022-12-29T01:06:24;93806.84;;;1.03;77.02
64211;BME280;50528;48.514;14.394;2022-12-29T01:06:57;93807.92;;;1.04;77.18
64211;BME280;50528;48.514;14.394;2022-12-29T01:07:31;93804.48;;;1.05;77.03
64211;BME280;50528;48.514;14.394;2022-12-29T01:08:07;93799.68;;;1.05;77.04
64211;BME280;50528;48.514;14.394;2022-12-29T01:08:40;93806.23;;;1.08;77.32
64211;BME280;50528;48.514;14.394;2022-12-29T01:09:15;93806.59;;;1.07;77.14
64211;BME280;50528;48.514;14.394;2022-12-29T01:10:08;93804.87;;;1.07;76.92
64211;BME280;50528;48.514;14.394;2022-12-29T01:10:45;93807.01;;;1.07;77.12
64211;BME280;50528;48.514;14.394;2022-12-29T01:11:18;93806.75;;;1.08;77.01
64211;BME280;50528;48.514;14.394;2022-12-29T01:11:52;93809.98;;;1.09;77.09
64211;BME280;50528;48.514;14.394;2022-12-29T01:12:29;93811.45;;;1.08;76.91
64211;BME280;50528;48.514;14.394;2022-12-29T01:13:15;93811.83;;;1.10;77.01
64211;BME280;50528;48.514;14.394;2022-12-29T01:13:49;93810.40;;;1.10;77.05
64211;BME280;50528;48.514;14.394;2022-12-29T01:14:23;93808.73;;;1.11;76.98
64211;BME280;50528;48.514;14.394;2022-12-29T01:15:06;93804.08;;;1.11;76.97
64211;BME280;50528;48.514;14.394;2022-12-29T01:15:55;93805.15;;;1.11;76.96
64211;BME280;50528;48.514;14.394;2022-12-29T01:16:29;93806.76;;;1.09;76.94
64211;BME280;50528;48.514;14.394;2022-12-29T01:17:04;93807.79;;;1.08;77.07
64211;BME280;50528;48.514;14.394;2022-12-29T01:17:39;93810.17;;;1.08;76.97
64211;BME280;50528;48.514;14.394;2022-12-29T01:18:12;93808.15;;;1.09;76.84
64211;BME280;50528;48.514;14.394;2022-12-29T01:18:48;93806.59;;;1.09;77.07
64211;BME280;50528;48.514;14.394;2022-12-29T01:19:27;93802.24;;;1.08;76.87
64211;BME280;50528;48.514;14.394;2022-12-29T01:20:02;93796.70;;;1.06;76.90
64211;BME280;50528;48.514;14.394;2022-12-29T01:20:36;93797.23;;;1.08;76.88
64211;BME280;50528;48.514;14.394;2022-12-29T01:21:10;93805.02;;;1.10;77.07
64211;BME280;50528;48.514;14.394;2022-12-29T01:21:44;93804.74;;;1.10;76.94
64211;BME280;50528;48.514;14.394;2022-12-29T01:22:18;93808.33;;;1.10;77.05
64211;BME280;50528;48.514;14.394;2022-12-29T01:22:52;93803.77;;;1.09;76.78
64211;BME280;50528;48.514;14.394;2022-12-29T01:23:32;93806.98;;;1.11;76.75
64211;BME280;50528;48.514;14.394;2022-12-29T01:24:06;93805.10;;;1.11;76.86
64211;BME280;50528;48.514;14.394;2022-12-29T01:24:40;93799.77;;;1.12;76.72
64211;BME280;50528;48.514;14.394;2022-12-29T01:25:13;93803.46;;;1.16;76.97
64211;BME280;50528;48.514;14.394;2022-12-29T01:25:47;93800.44;;;1.19;76.73
64211;BME280;50528;48.514;14.394;2022-12-29T01:26:23;93800.04;;;1.22;76.61
64211;BME280;50528;48.514;14.394;2022-12-29T01:26:57;93806.77;;;1.26;76.51
64211;BME280;50528;48.514;14.394;2022-12-29T01:27:30;93804.45;;;1.28;76.49
64211;BME280;50528;48.514;14.394;2022-12-29T01:28:04;93806.13;;;1.28;76.70
64211;BME280;50528;48.514;14.394;2022-12-29T01:28:39;93805.84;;;1.30;76.38
64211;BME280;50528;48.514;14.394;2022-12-29T01:29:13;93803.37;;;1.28;76.54
64211;BME280;50528;48.514;14.394;2022-12-29T01:29:47;93803.45;;;1.30;76.40
64211;BME280;50528;48.514;14.394;2022-12-29T01:30:20;93804.85;;;1.30;76.51
64211;BME280;50528;48.514;14.394;2022-12-29T01:31:00;93805.92;;;1.31;76.67
64211;BME280;50528;48.514;14.394;2022-12-29T01:31:34;93804.92;;;1.31;76.53
64211;BME280;50528;48.514;14.394;2022-12-29T01:32:07;93800.30;;;1.29;76.55
64211;BME280;50528;48.514;14.394;2022-12-29T01:32:50;93800.06;;;1.29;76.53
64211;BME280;50528;48.514;14.394;2022-12-29T01:33:26;93805.69;;;1.31;76.21
64211;BME280;50528;48.514;14.394;2022-12-29T01:34:04;93805.20;;;1.31;76.16
64211;BME280;50528;48.514;14.394;2022-12-29T01:34:42;93803.33;;;1.31;76.23
64211;BME280;50528;48.514;14.394;2022-12-29T01:35:57;93800.90;;;1.27;76.40
64211;BME280;50528;48.514;14.394;2022-12-29T01:36:33;93803.11;;;1.26;76.37
64211;BME280;50528;48.514;14.394;2022-12-29T01:37:15;93804.46;;;1.26;76.35
64211;BME280;50528;48.514;14.394;2022-12-29T01:37:51;93804.54;;;1.25;76.49
64211;BME280;50528;48.514;14.394;2022-12-29T01:38:25;93806.29;;;1.25;76.35
64211;BME280;50528;48.514;14.394;2022-12-29T01:38:58;93805.59;;;1.27;76.38
64211;BME280;50528;48.514;14.394;2022-12-29T01:39:58;93804.80;;;1.20;76.33
64211;BME280;50528;48.514;14.394;2022-12-29T01:40:31;93802.55;;;1.22;76.65
64211;BME280;50528;48.514;14.394;2022-12-29T01:41:07;93807.00;;;1.22;76.39
64211;BME280;50528;48.514;14.394;2022-12-29T01:41:41;93799.95;;;1.22;76.45
64211;BME280;50528;48.514;14.394;2022-12-29T01:42:17;93804.81;;;1.22;76.32
64211;BME280;50528;48.514;14.394;2022-12-29T01:42:50;93803.69;;;1.21;76.36
64211;BME280;50528;48.514;14.394;2022-12-29T01:43:53;93802.84;;;1.20;76.53
64211;BME280;50528;48.514;14.394;2022-12-29T01:45:09;93804.15;;;1.13;76.23
64211;BME280;50528;48.514;14.394;2022-12-29T01:45:47;93804.00;;;1.12;76.32
64211;BME280;50528;48.514;14.394;2022-12-29T01:47:07;93794.05;;;1.08;76.62
64211;BME280;50528;48.514;14.394;2022-12-29T01:47:57;93798.40;;;1.09;76.35
64211;BME280;50528;48.514;14.394;2022-12-29T01:48:32;93795.84;;;1.08;76.41
64211;BME280;50528;48.514;14.394;2022-12-29T01:49:32;93791.20;;;1.06;76.39
64211;BME280;50528;48.514;14.394;2022-12-29T01:51:00;93787.34;;;0.99;76.07
64211;BME280;50528;48.514;14.394;2022-12-29T01:51:59;93791.73;;;0.98;76.26
64211;BME280;50528;48.514;14.394;2022-12-29T01:52:33;93788.84;;;0.95;76.14
64211;BME280;50528;48.514;14.394;2022-12-29T01:53:12;93791.11;;;0.93;76.20
64211;BME280;50528;48.514;14.394;2022-12-29T01:53:46;93789.81;;;0.93;76.03
64211;BME280;50528;48.514;14.394;2022-12-29T01:54:52;93787.47;;;0.89;76.47
64211;BME280;50528;48.514;14.394;2022-12-29T01:55:32;93784.30;;;0.88;76.31
64211;BME280;50528;48.514;14.394;2022-12-29T01:56:07;93783.92;;;0.87;76.20
64211;BME280;50528;48.514;14.394;2022-12-29T01:56:44;93784.94;;;0.88;76.36
64211;BME280;50528;48.514;14.394;2022-12-29T01:57:24;93787.36;;;0.87;76.35
64211;BME280;50528;48.514;14.394;2022-12-29T01:58:01;93785.48;;;0.88;76.37
64211;BME280;50528;48.514;14.394;2022-12-29T01:58:39;93787.27;;;0.88;76.27
64211;BME280;50528;48.514;14.394;2022-12-29T01:59:19;93779.55;;;0.87;76.51
64211;BME280;50528;48.514;14.394;2022-12-29T01:59:59;93785.25;;;0.88;76.33
64211;BME280;50528;48.514;14.394;2022-12-29T02:00:45;93778.58;;;0.86;76.44
64211;BME280;50528;48.514;14.394;2022-12-29T02:01:19;93778.66;;;0.85;76.60
64211;BME280;50528;48.514;14.394;2022-12-29T02:01:54;93778.30;;;0.86;76.34
64211;BME280;50528;48.514;14.394;2022-12-29T02:02:28;93777.27;;;0.85;76.51
64211;BME280;50528;48.514;14.394;2022-12-29T02:03:06;93776.02;;;0.84;76.48
64211;BME280;50528;48.514;14.394;2022-12-29T02:03:41;93775.95;;;0.86;76.68
64211;BME280;50528;48.514;14.394;2022-12-29T02:04:15;93777.60;;;0.87;76.68
64211;BME280;50528;48.514;14.394;2022-12-29T02:04:50;93777.45;;;0.88;76.55
64211;BME280;50528;48.514;14.394;2022-12-29T02:06:23;93775.78;;;0.88;76.37
64211;BME280;50528;48.514;14.394;2022-12-29T02:07:04;93778.41;;;0.87;76.76
64211;BME280;50528;48.514;14.394;2022-12-29T02:07:41;93772.50;;;0.86;76.60
64211;BME280;50528;48.514;14.394;2022-12-29T02:08:16;93774.71;;;0.88;76.49
64211;BME280;50528;48.514;14.394;2022-12-29T02:08:52;93776.16;;;0.87;76.56
64211;BME280;50528;48.514;14.394;2022-12-29T02:09:27;93773.82;;;0.90;76.47
64211;BME280;50528;48.514;14.394;2022-12-29T02:10:02;93772.35;;;0.90;76.63
64211;BME280;50528;48.514;14.394;2022-12-29T02:10:36;93774.35;;;0.91;76.52
64211;BME280;50528;48.514;14.394;2022-12-29T02:11:10;93778.48;;;0.91;76.35
64211;BME280;50528;48.514;14.394;2022-12-29T02:12:22;93771.09;;;0.87;76.64
64211;BME280;50528;48.514;14.394;2022-12-29T02:12:56;93770.73;;;0.88;76.55
64211;BME280;50528;48.514;14.394;2022-12-29T02:13:30;93768.33;;;0.88;76.61
64211;BME280;50528;48.514;14.394;2022-12-29T02:14:13;93767.93;;;0.88;76.48
64211;BME280;50528;48.514;14.394;2022-12-29T02:14:49;93766.83;;;0.88;76.61
64211;BME280;50528;48.514;14.394;2022-12-29T02:17:24;93763.79;;;0.83;76.68
64211;BME280;50528;48.514;14.394;2022-12-29T02:20:47;93765.89;;;0.80;76.45
64211;BME280;50528;48.514;14.394;2022-12-29T02:23:27;93761.66;;;0.73;76.52
64211;BME280;50528;48.514;14.394;2022-12-29T02:27:41;93759.15;;;0.62;76.51
64211;BME280;50528;48.514;14.394;2022-12-29T02:29:31;93752.84;;;0.57;76.64
64211;BME280;50528;48.514;14.394;2022-12-29T02:34:30;93753.69;;;0.49;76.67
64211;BME280;50528;48.514;14.394;2022-12-29T02:35:40;93750.81;;;0.49;76.76
64211;BME280;50528;48.514;14.394;2022-12-29T02:39:42;93748.37;;;0.44;77.16
64211;BME280;50528;48.514;14.394;2022-12-29T02:42:18;93754.54;;;0.45;77.23
64211;BME280;50528;48.514;14.394;2022-12-29T02:44:01;93757.02;;;0.44;77.36
64211;BME280;50528;48.514;14.394;2022-12-29T03:04:56;93736.59;;;0.64;76.35
64211;BME280;50528;48.514;14.394;2022-12-29T03:06:28;93736.86;;;0.61;76.24
64211;BME280;50528;48.514;14.394;2022-12-29T03:10:42;93739.67;;;0.41;76.50
64211;BME280;50528;48.514;14.394;2022-12-29T03:11:23;93740.91;;;0.38;76.56
64211;BME280;50528;48.514;14.394;2022-12-29T03:13:45;93744.09;;;0.33;76.97
64211;BME280;50528;48.514;14.394;2022-12-29T03:15:05;93742.46;;;0.32;76.52
64211;BME280;50528;48.514;14.394;2022-12-29T03:16:27;93745.87;;;0.29;76.93
64211;BME280;50528;48.514;14.394;2022-12-29T03:17:18;93742.92;;;0.28;77.18
64211;BME280;50528;48.514;14.394;2022-12-29T03:18:04;93744.02;;;0.28;76.86
64211;BME280;50528;48.514;14.394;2022-12-29T03:19:17;93741.73;;;0.30;76.81
64211;BME280;50528;48.514;14.394;2022-12-29T03:19:53;93739.93;;;0.30;77.26
64211;BME280;50528;48.514;14.394;2022-12-29T03:20:38;93742.98;;;0.32;77.12
64211;BME280;50528;48.514;14.394;2022-12-29T03:21:50;93744.51;;;0.32;77.03
64211;BME280;50528;48.514;14.394;2022-12-29T03:22:47;93744.64;;;0.34;77.29
64211;BME280;50528;48.514;14.394;2022-12-29T03:23:27;93742.83;;;0.33;77.27
64211;BME280;50528;48.514;14.394;2022-12-29T03:24:02;93742.27;;;0.32;77.46
64211;BME280;50528;48.514;14.394;2022-12-29T03:24:43;93744.72;;;0.35;77.30
64211;BME280;50528;48.514;14.394;2022-12-29T03:25:23;93742.92;;;0.35;77.02
64211;BME280;50528;48.514;14.394;2022-12-29T03:25:58;93742.52;;;0.34;77.43
64211;BME280;50528;48.514;14.394;2022-12-29T03:26:35;93742.20;;;0.34;77.00
64211;BME280;50528;48.514;14.394;2022-12-29T03:27:11;93742.85;;;0.35;77.00
64211;BME280;50528;48.514;14.394;2022-12-29T03:27:51;93743.24;;;0.34;77.17
64211;BME280;50528;48.514;14.394;2022-12-29T03:28:39;93743.83;;;0.34;76.95
64211;BME280;50528;48.514;14.394;2022-12-29T03:29:15;93744.37;;;0.32;76.90
64211;BME280;50528;48.514;14.394;2022-12-29T03:29:55;93747.61;;;0.31;76.90
64211;BME280;50528;48.514;14.394;2022-12-29T03:30:31;93746.77;;;0.31;77.03
64211;BME280;50528;48.514;14.394;2022-12-29T03:31:06;93748.77;;;0.30;77.03
64211;BME280;50528;48.514;14.394;2022-12-29T03:31:40;93746.30;;;0.30;77.05
64211;BME280;50528;48.514;14.394;2022-12-29T03:32:15;93743.67;;;0.31;77.12
64211;BME280;50528;48.514;14.394;2022-12-29T03:32:54;93743.19;;;0.30;76.97
64211;BME280;50528;48.514;14.394;2022-12-29T03:33:31;93739.65;;;0.30;76.88
64211;BME280;50528;48.514;14.394;2022-12-29T03:34:06;93738.43;;;0.28;77.06
64211;BME280;50528;48.514;14.394;2022-12-29T03:34:39;93740.41;;;0.29;77.06
64211;BME280;50528;48.514;14.394;2022-12-29T03:35:13;93740.70;;;0.29;77.03
64211;BME280;50528;48.514;14.394;2022-12-29T03:35:49;93738.70;;;0.30;76.85
64211;BME280;50528;48.514;14.394;2022-12-29T03:36:41;93739.38;;;0.30;76.84
64211;BME280;50528;48.514;14.394;2022-12-29T03:37:23;93742.33;;;0.29;76.96
64211;BME280;50528;48.514;14.394;2022-12-29T03:38:07;93738.27;;;0.29;76.99
64211;BME280;50528;48.514;14.394;2022-12-29T03:39:06;93737.79;;;0.28;76.82
64211;BME280;50528;48.514;14.394;2022-12-29T03:39:35;93738.17;;;0.28;77.11
64211;BME280;50528;48.514;14.394;2022-12-29T03:40:08;93746.26;;;0.28;77.17
64211;BME280;50528;48.514;14.394;2022-12-29T03:40:43;93740.33;;;0.29;76.89
64211;BME280;50528;48.514;14.394;2022-12-29T03:41:20;93745.09;;;0.29;76.92
64211;BME280;50528;48.514;14.394;2022-12-29T03:41:59;93745.55;;;0.29;77.15
64211;BME280;50528;48.514;14.394;2022-12-29T03:42:36;93745.03;;;0.28;76.91
64211;BME280;50528;48.514;14.394;2022-12-29T03:43:11;93742.08;;;0.28;76.87
64211;BME280;50528;48.514;14.394;2022-12-29T03:43:45;93740.29;;;0.27;76.95
64211;BME280;50528;48.514;14.394;2022-12-29T03:44:17;93740.53;;;0.30;77.14
64211;BME280;50528;48.514;14.394;2022-12-29T03:44:53;93743.27;;;0.31;76.84
64211;BME280;50528;48.514;14.394;2022-12-29T03:45:26;93741.67;;;0.33;77.01
64211;BME280;50528;48.514;14.394;2022-12-29T03:45:59;93739.15;;;0.34;76.79
64211;BME280;50528;48.514;14.394;2022-12-29T03:46:31;93740.35;;;0.36;76.94
64211;BME280;50528;48.514;14.394;2022-12-29T03:47:03;93738.79;;;0.39;76.83
64211;BME280;50528;48.514;14.394;2022-12-29T03:47:36;93736.66;;;0.43;76.67
64211;BME280;50528;48.514;14.394;2022-12-29T03:48:08;93737.62;;;0.44;76.75
64211;BME280;50528;48.514;14.394;2022-12-29T03:48:42;93739.29;;;0.44;76.83
64211;BME280;50528;48.514;14.394;2022-12-29T03:49:15;93737.66;;;0.45;76.84
64211;BME280;50528;48.514;14.394;2022-12-29T03:49:49;93741.30;;;0.46;76.92
64211;BME280;50528;48.514;14.394;2022-12-29T03:50:22;93741.95;;;0.46;76.97
64211;BME280;50528;48.514;14.394;2022-12-29T03:50:54;93742.59;;;0.47;76.95
64211;BME280;50528;48.514;14.394;2022-12-29T03:51:27;93742.14;;;0.49;76.92
64211;BME280;50528;48.514;14.394;2022-12-29T03:51:59;93747.10;;;0.51;76.75
64211;BME280;50528;48.514;14.394;2022-12-29T03:52:32;93740.02;;;0.51;76.63
64211;BME280;50528;48.514;14.394;2022-12-29T03:53:04;93742.89;;;0.51;76.75
64211;BME280;50528;48.514;14.394;2022-12-29T03:53:36;93736.63;;;0.54;76.62
64211;BME280;50528;48.514;14.394;2022-12-29T03:54:08;93737.59;;;0.56;76.31
64211;BME280;50528;48.514;14.394;2022-12-29T03:54:40;93733.38;;;0.61;76.43
64211;BME280;50528;48.514;14.394;2022-12-29T03:55:13;93736.73;;;0.66;76.03
64211;BME280;50528;48.514;14.394;2022-12-29T03:55:45;93732.28;;;0.70;75.93
64211;BME280;50528;48.514;14.394;2022-12-29T03:56:17;93731.59;;;0.81;75.71
64211;BME280;50528;48.514;14.394;2022-12-29T03:56:49;93732.59;;;0.83;75.50
64211;BME280;50528;48.514;14.394;2022-12-29T03:57:33;93732.50;;;0.83;75.44
64211;BME280;50528;48.514;14.394;2022-12-29T03:58:09;93731.49;;;0.86;75.74
64211;BME280;50528;48.514;14.394;2022-12-29T03:59:04;93733.98;;;0.88;75.67
64211;BME280;50528;48.514;14.394;2022-12-29T03:59:41;93734.38;;;0.89;75.71
64211;BME280;50528;48.514;14.394;2022-12-29T04:00:14;93737.89;;;0.91;75.55
64211;BME280;50528;48.514;14.394;2022-12-29T04:00:46;93736.38;;;0.94;75.53
64211;BME280;50528;48.514;14.394;2022-12-29T04:01:18;93733.93;;;0.99;75.47
64211;BME280;50528;48.514;14.394;2022-12-29T04:01:51;93730.32;;;1.04;75.45
64211;BME280;50528;48.514;14.394;2022-12-29T04:02:24;93732.73;;;1.07;75.04
64211;BME280;50528;48.514;14.394;2022-12-29T04:02:57;93729.60;;;1.09;74.88
64211;BME280;50528;48.514;14.394;2022-12-29T04:03:30;93728.70;;;1.13;74.93
64211;BME280;50528;48.514;14.394;2022-12-29T04:04:02;93730.59;;;1.16;74.78
64211;BME280;50528;48.514;14.394;2022-12-29T04:04:34;93732.83;;;1.20;74.89
64211;BME280;50528;48.514;14.394;2022-12-29T04:05:07;93731.48;;;1.31;74.30
64211;BME280;50528;48.514;14.394;2022-12-29T04:05:39;93726.12;;;1.37;73.91
64211;BME280;50528;48.514;14.394;2022-12-29T04:06:11;93724.91;;;1.41;73.88
64211;BME280;50528;48.514;14.394;2022-12-29T04:06:50;93727.55;;;1.41;74.08
64211;BME280;50528;48.514;14.394;2022-12-29T04:07:22;93726.15;;;1.42;74.15
64211;BME280;50528;48.514;14.394;2022-12-29T04:07:56;93727.61;;;1.43;74.07
64211;BME280;50528;48.514;14.394;2022-12-29T04:08:28;93726.31;;;1.43;74.10
64211;BME280;50528;48.514;14.394;2022-12-29T04:09:00;93728.11;;;1.44;74.31
64211;BME280;50528;48.514;14.394;2022-12-29T04:09:34;93722.46;;;1.45;74.20
64211;BME280;50528;48.514;14.394;2022-12-29T04:10:07;93722.02;;;1.49;74.05
64211;BME280;50528;48.514;14.394;2022-12-29T04:10:40;93723.20;;;1.50;73.56
64211;BME280;50528;48.514;14.394;2022-12-29T04:11:12;93719.42;;;1.46;73.70
64211;BME280;50528;48.514;14.394;2022-12-29T04:11:46;93727.21;;;1.46;73.89
64211;BME280;50528;48.514;14.394;2022-12-29T04:12:18;93726.92;;;1.44;74.25
64211;BME280;50528;48.514;14.394;2022-12-29T04:12:51;93727.66;;;1.42;74.30
64211;BME280;50528;48.514;14.394;2022-12-29T04:13:23;93728.66;;;1.41;74.13
64211;BME280;50528;48.514;14.394;2022-12-29T04:13:56;93729.70;;;1.40;74.36
64211;BME280;50528;48.514;14.394;2022-12-29T04:14:30;93730.07;;;1.37;74.14
64211;BME280;50528;48.514;14.394;2022-12-29T04:15:03;93736.68;;;1.34;74.00
64211;BME280;50528;48.514;14.394;2022-12-29T04:15:37;93728.62;;;1.32;74.21
64211;BME280;50528;48.514;14.394;2022-12-29T04:16:09;93730.84;;;1.30;74.15
64211;BME280;50528;48.514;14.394;2022-12-29T04:16:41;93734.15;;;1.28;74.38
64211;BME280;50528;48.514;14.394;2022-12-29T04:17:13;93730.74;;;1.26;74.17
64211;BME280;50528;48.514;14.394;2022-12-29T04:17:47;93731.83;;;1.24;74.24
64211;BME280;50528;48.514;14.394;2022-12-29T04:18:19;93733.80;;;1.22;74.27
64211;BME280;50528;48.514;14.394;2022-12-29T04:18:51;93736.50;;;1.20;74.09
64211;BME280;50528;48.514;14.394;2022-12-29T04:19:23;93738.16;;;1.18;74.20
64211;BME280;50528;48.514;14.394;2022-12-29T04:19:55;93744.56;;;1.16;74.34
64211;BME280;50528;48.514;14.394;2022-12-29T04:20:48;93742.82;;;1.11;74.09
64211;BME280;50528;48.514;14.394;2022-12-29T04:21:43;93740.35;;;1.03;74.17
64211;BME280;50528;48.514;14.394;2022-12-29T04:22:22;93739.86;;;1.00;74.41
64211;BME280;50528;48.514;14.394;2022-12-29T04:23:02;93742.88;;;0.98;74.58
64211;BME280;50528;48.514;14.394;2022-12-29T04:23:38;93739.15;;;0.96;74.24
64211;BME280;50528;48.514;14.394;2022-12-29T04:24:13;93741.77;;;0.93;74.33
64211;BME280;50528;48.514;14.394;2022-12-29T04:24:46;93740.94;;;0.92;74.49
64211;BME280;50528;48.514;14.394;2022-12-29T04:25:18;93745.73;;;0.91;74.37
64211;BME280;50528;48.514;14.394;2022-12-29T04:25:50;93740.94;;;0.89;74.55
64211;BME280;50528;48.514;14.394;2022-12-29T04:26:22;93742.90;;;0.87;74.38
64211;BME280;50528;48.514;14.394;2022-12-29T04:27:03;93745.14;;;0.83;74.25
64211;BME280;50528;48.514;14.394;2022-12-29T04:27:35;93740.63;;;0.78;74.44
64211;BME280;50528;48.514;14.394;2022-12-29T04:28:30;93745.84;;;0.72;74.45
64211;BME280;50528;48.514;14.394;2022-12-29T04:29:27;93743.98;;;0.66;74.51
64211;BME280;50528;48.514;14.394;2022-12-29T04:30:23;93744.75;;;0.62;74.62
64211;BME280;50528;48.514;14.394;2022-12-29T04:31:21;93745.80;;;0.57;74.70
64211;BME280;50528;48.514;14.394;2022-12-29T04:31:54;93745.63;;;0.56;74.91
64211;BME280;50528;48.514;14.394;2022-12-29T04:32:26;93744.45;;;0.54;75.23
64211;BME280;50528;48.514;14.394;2022-12-29T04:33:00;93748.18;;;0.54;75.07
64211;BME280;50528;48.514;14.394;2022-12-29T04:33:33;93751.77;;;0.55;75.07